sensor_id;sensor_type;location;lat;lon;timestamp;P1;durP1;ratioP1;P2;durP2;ratioP2
30462;SDS011;17256;43.618;25.336;2023-06-26T00:02:01;6.90;;;5.70;;
30462;SDS011;17256;43.618;25.336;2023-06-26T00:04:31;6.47;;;5.87;;
30462;SDS011;17256;43.618;25.336;2023-06-26T00:07:03;6.73;;;5.30;;
30462;SDS011;17256;43.618;25.336;2023-06-26T00:09:31;5.77;;;5.17;;
30462;SDS011;17256;43.618;25.336;2023-06-26T00:12:03;9.03;;;5.93;;
30462;SDS011;17256;43.618;25.336;2023-06-26T00:14:29;8.07;;;5.87;;
30462;SDS011;17256;43.618;25.336;2023-06-26T00:16:56;6.43;;;5.77;;
30462;SDS011;17256;43.618;25.336;2023-06-26T00:19:23;6.63;;;5.50;;
30462;SDS011;17256;43.618;25.336;2023-06-26T00:21:49;7.60;;;5.73;;
30462;SDS011;17256;43.618;25.336;2023-06-26T00:24:17;10.27;;;7.43;;
30462;SDS011;17256;43.618;25.336;2023-06-26T00:26:45;6.10;;;5.60;;
30462;SDS011;17256;43.618;25.336;2023-06-26T00:29:13;8.47;;;6.73;;
30462;SDS011;17256;43.618;25.336;2023-06-26T00:31:39;7.83;;;6.40;;
30462;SDS011;17256;43.618;25.336;2023-06-26T00:34:10;9.00;;;6.20;;
30462;SDS011;17256;43.618;25.336;2023-06-26T00:36:36;6.77;;;6.13;;
30462;SDS011;17256;43.618;25.336;2023-06-26T00:39:05;6.20;;;5.50;;
30462;SDS011;17256;43.618;25.336;2023-06-26T00:41:34;7.17;;;6.47;;
30462;SDS011;17256;43.618;25.336;2023-06-26T00:44:01;9.90;;;7.10;;
30462;SDS011;17256;43.618;25.336;2023-06-26T00:46:42;8.60;;;7.27;;
30462;SDS011;17256;43.618;25.336;2023-06-26T00:49:15;6.93;;;5.97;;
30462;SDS011;17256;43.618;25.336;2023-06-26T00:52:10;8.77;;;6.60;;
30462;SDS011;17256;43.618;25.336;2023-06-26T00:54:41;8.23;;;6.90;;
30462;SDS011;17256;43.618;25.336;2023-06-26T00:57:19;10.40;;;7.63;;
30462;SDS011;17256;43.618;25.336;2023-06-26T00:59:48;12.07;;;9.03;;
30462;SDS011;17256;43.618;25.336;2023-06-26T01:02:16;12.37;;;8.07;;
30462;SDS011;17256;43.618;25.336;2023-06-26T01:04:49;8.50;;;7.43;;
30462;SDS011;17256;43.618;25.336;2023-06-26T01:07:17;9.23;;;7.03;;
30462;SDS011;17256;43.618;25.336;2023-06-26T01:09:48;7.93;;;7.27;;
30462;SDS011;17256;43.618;25.336;2023-06-26T01:12:17;7.43;;;6.63;;
30462;SDS011;17256;43.618;25.336;2023-06-26T01:14:48;8.90;;;7.83;;
30462;SDS011;17256;43.618;25.336;2023-06-26T01:17:18;8.43;;;6.90;;
30462;SDS011;17256;43.618;25.336;2023-06-26T01:19:46;8.70;;;7.27;;
30462;SDS011;17256;43.618;25.336;2023-06-26T01:22:28;9.07;;;7.63;;
30462;SDS011;17256;43.618;25.336;2023-06-26T01:30:48;10.57;;;8.27;;
30462;SDS011;17256;43.618;25.336;2023-06-26T01:33:20;8.93;;;8.03;;
30462;SDS011;17256;43.618;25.336;2023-06-26T01:35:54;11.33;;;8.13;;
30462;SDS011;17256;43.618;25.336;2023-06-26T01:38:21;11.47;;;7.90;;
30462;SDS011;17256;43.618;25.336;2023-06-26T01:40:59;11.50;;;7.97;;
30462;SDS011;17256;43.618;25.336;2023-06-26T01:46:27;7.90;;;7.07;;
30462;SDS011;17256;43.618;25.336;2023-06-26T01:55:14;7.60;;;6.90;;
30462;SDS011;17256;43.618;25.336;2023-06-26T01:58:29;12.27;;;8.70;;
30462;SDS011;17256;43.618;25.336;2023-06-26T02:01:32;8.60;;;7.50;;
30462;SDS011;17256;43.618;25.336;2023-06-26T02:04:04;10.67;;;8.27;;
30462;SDS011;17256;43.618;25.336;2023-06-26T02:06:36;12.00;;;7.40;;
30462;SDS011;17256;43.618;25.336;2023-06-26T02:12:19;9.33;;;7.33;;
30462;SDS011;17256;43.618;25.336;2023-06-26T02:14:48;11.53;;;8.13;;
30462;SDS011;17256;43.618;25.336;2023-06-26T02:17:22;8.67;;;7.73;;
30462;SDS011;17256;43.618;25.336;2023-06-26T02:19:54;11.27;;;8.03;;
30462;SDS011;17256;43.618;25.336;2023-06-26T02:22:25;12.80;;;8.63;;
30462;SDS011;17256;43.618;25.336;2023-06-26T02:24:57;9.77;;;8.77;;
30462;SDS011;17256;43.618;25.336;2023-06-26T02:27:56;11.20;;;8.60;;
30462;SDS011;17256;43.618;25.336;2023-06-26T02:30:24;9.83;;;8.87;;
30462;SDS011;17256;43.618;25.336;2023-06-26T02:32:58;9.97;;;8.97;;
30462;SDS011;17256;43.618;25.336;2023-06-26T02:35:44;11.67;;;9.07;;
30462;SDS011;17256;43.618;25.336;2023-06-26T02:38:19;9.83;;;8.10;;
30462;SDS011;17256;43.618;25.336;2023-06-26T02:40:55;10.63;;;8.77;;
30462;SDS011;17256;43.618;25.336;2023-06-26T02:43:51;9.87;;;8.27;;
30462;SDS011;17256;43.618;25.336;2023-06-26T02:46:31;8.53;;;7.73;;
30462;SDS011;17256;43.618;25.336;2023-06-26T02:49:06;8.97;;;8.07;;
30462;SDS011;17256;43.618;25.336;2023-06-26T02:51:38;12.13;;;9.73;;
30462;SDS011;17256;43.618;25.336;2023-06-26T02:54:30;9.37;;;7.97;;
30462;SDS011;17256;43.618;25.336;2023-06-26T02:57:25;12.13;;;10.93;;
30462;SDS011;17256;43.618;25.336;2023-06-26T03:00:23;11.97;;;9.50;;
30462;SDS011;17256;43.618;25.336;2023-06-26T03:03:19;11.47;;;8.63;;
30462;SDS011;17256;43.618;25.336;2023-06-26T03:05:59;11.77;;;8.20;;
30462;SDS011;17256;43.618;25.336;2023-06-26T03:09:33;15.70;;;9.27;;
30462;SDS011;17256;43.618;25.336;2023-06-26T03:12:27;11.87;;;8.97;;
30462;SDS011;17256;43.618;25.336;2023-06-26T03:15:19;11.37;;;9.17;;
30462;SDS011;17256;43.618;25.336;2023-06-26T03:17:47;17.17;;;8.77;;
30462;SDS011;17256;43.618;25.336;2023-06-26T03:20:22;9.83;;;8.50;;
30462;SDS011;17256;43.618;25.336;2023-06-26T03:22:56;11.67;;;7.50;;
30462;SDS011;17256;43.618;25.336;2023-06-26T03:25:51;10.43;;;8.67;;
30462;SDS011;17256;43.618;25.336;2023-06-26T03:35:46;9.70;;;7.87;;
30462;SDS011;17256;43.618;25.336;2023-06-26T03:38:18;11.63;;;8.50;;
30462;SDS011;17256;43.618;25.336;2023-06-26T03:41:19;15.10;;;9.43;;
30462;SDS011;17256;43.618;25.336;2023-06-26T03:44:06;11.47;;;9.33;;
30462;SDS011;17256;43.618;25.336;2023-06-26T03:47:13;12.07;;;8.50;;
30462;SDS011;17256;43.618;25.336;2023-06-26T03:50:02;10.10;;;8.80;;
30462;SDS011;17256;43.618;25.336;2023-06-26T03:55:43;15.73;;;8.93;;
30462;SDS011;17256;43.618;25.336;2023-06-26T04:02:00;10.87;;;8.40;;
30462;SDS011;17256;43.618;25.336;2023-06-26T04:05:04;12.33;;;8.60;;
30462;SDS011;17256;43.618;25.336;2023-06-26T04:07:53;13.50;;;7.73;;
30462;SDS011;17256;43.618;25.336;2023-06-26T04:11:43;10.67;;;6.93;;
30462;SDS011;17256;43.618;25.336;2023-06-26T04:14:53;10.53;;;6.87;;
30462;SDS011;17256;43.618;25.336;2023-06-26T04:21:25;9.40;;;6.20;;
30462;SDS011;17256;43.618;25.336;2023-06-26T04:32:08;7.60;;;6.57;;
30462;SDS011;17256;43.618;25.336;2023-06-26T04:35:56;7.87;;;6.60;;
30462;SDS011;17256;43.618;25.336;2023-06-26T04:38:48;9.63;;;6.77;;
30462;SDS011;17256;43.618;25.336;2023-06-26T04:41:45;9.60;;;6.63;;
30462;SDS011;17256;43.618;25.336;2023-06-26T04:50:06;12.37;;;7.10;;
30462;SDS011;17256;43.618;25.336;2023-06-26T04:53:08;10.47;;;6.77;;
30462;SDS011;17256;43.618;25.336;2023-06-26T04:56:04;11.50;;;7.17;;
30462;SDS011;17256;43.618;25.336;2023-06-26T04:58:32;11.20;;;7.50;;
30462;SDS011;17256;43.618;25.336;2023-06-26T05:04:06;10.13;;;7.03;;
30462;SDS011;17256;43.618;25.336;2023-06-26T05:10:43;11.90;;;8.13;;
30462;SDS011;17256;43.618;25.336;2023-06-26T05:13:14;10.77;;;8.47;;
30462;SDS011;17256;43.618;25.336;2023-06-26T05:15:46;12.70;;;7.83;;
30462;SDS011;17256;43.618;25.336;2023-06-26T05:18:24;10.63;;;8.77;;
30462;SDS011;17256;43.618;25.336;2023-06-26T05:21:26;10.50;;;7.37;;
30462;SDS011;17256;43.618;25.336;2023-06-26T05:24:06;12.50;;;7.63;;
30462;SDS011;17256;43.618;25.336;2023-06-26T05:26:57;10.33;;;6.87;;
30462;SDS011;17256;43.618;25.336;2023-06-26T05:30:25;10.43;;;7.17;;
30462;SDS011;17256;43.618;25.336;2023-06-26T05:33:21;9.77;;;7.07;;
30462;SDS011;17256;43.618;25.336;2023-06-26T05:57:29;8.93;;;7.80;;
30462;SDS011;17256;43.618;25.336;2023-06-26T06:01:40;10.13;;;6.80;;
30462;SDS011;17256;43.618;25.336;2023-06-26T06:04:26;8.03;;;7.23;;
30462;SDS011;17256;43.618;25.336;2023-06-26T06:06:52;8.30;;;7.50;;
30462;SDS011;17256;43.618;25.336;2023-06-26T06:09:19;9.77;;;8.37;;
30462;SDS011;17256;43.618;25.336;2023-06-26T06:11:44;9.80;;;7.77;;
30462;SDS011;17256;43.618;25.336;2023-06-26T06:14:10;10.23;;;7.80;;
30462;SDS011;17256;43.618;25.336;2023-06-26T06:16:37;12.57;;;8.47;;
30462;SDS011;17256;43.618;25.336;2023-06-26T06:19:17;12.13;;;8.63;;
30462;SDS011;17256;43.618;25.336;2023-06-26T06:25:52;12.47;;;8.63;;
30462;SDS011;17256;43.618;25.336;2023-06-26T06:29:06;11.90;;;7.63;;
30462;SDS011;17256;43.618;25.336;2023-06-26T06:34:21;11.63;;;8.63;;
30462;SDS011;17256;43.618;25.336;2023-06-26T06:37:27;10.53;;;9.17;;
30462;SDS011;17256;43.618;25.336;2023-06-26T06:39:57;9.57;;;8.57;;
30462;SDS011;17256;43.618;25.336;2023-06-26T06:45:22;12.00;;;9.80;;
30462;SDS011;17256;43.618;25.336;2023-06-26T06:47:51;13.30;;;11.20;;
30462;SDS011;17256;43.618;25.336;2023-06-26T06:50:18;14.83;;;10.40;;
30462;SDS011;17256;43.618;25.336;2023-06-26T06:52:43;16.60;;;10.93;;
30462;SDS011;17256;43.618;25.336;2023-06-26T06:55:16;20.17;;;15.50;;
30462;SDS011;17256;43.618;25.336;2023-06-26T06:57:44;17.93;;;12.00;;
30462;SDS011;17256;43.618;25.336;2023-06-26T07:00:11;19.23;;;13.10;;
30462;SDS011;17256;43.618;25.336;2023-06-26T07:02:43;11.43;;;10.30;;
30462;SDS011;17256;43.618;25.336;2023-06-26T07:05:12;10.43;;;9.53;;
30462;SDS011;17256;43.618;25.336;2023-06-26T07:07:38;11.20;;;8.93;;
30462;SDS011;17256;43.618;25.336;2023-06-26T07:10:11;10.07;;;8.57;;
30462;SDS011;17256;43.618;25.336;2023-06-26T07:12:38;10.17;;;8.93;;
30462;SDS011;17256;43.618;25.336;2023-06-26T07:15:06;9.40;;;8.40;;
30462;SDS011;17256;43.618;25.336;2023-06-26T07:17:37;10.17;;;8.20;;
30462;SDS011;17256;43.618;25.336;2023-06-26T07:20:09;9.20;;;8.23;;
30462;SDS011;17256;43.618;25.336;2023-06-26T07:22:47;8.77;;;7.97;;
30462;SDS011;17256;43.618;25.336;2023-06-26T07:26:17;10.00;;;8.70;;
30462;SDS011;17256;43.618;25.336;2023-06-26T07:37:23;8.97;;;8.07;;
30462;SDS011;17256;43.618;25.336;2023-06-26T07:43:59;8.43;;;7.53;;
30462;SDS011;17256;43.618;25.336;2023-06-26T07:46:30;13.13;;;9.03;;
30462;SDS011;17256;43.618;25.336;2023-06-26T07:49:48;10.07;;;8.17;;
30462;SDS011;17256;43.618;25.336;2023-06-26T07:55:34;9.30;;;8.33;;
30462;SDS011;17256;43.618;25.336;2023-06-26T07:58:01;9.60;;;8.43;;
30462;SDS011;17256;43.618;25.336;2023-06-26T08:00:26;9.40;;;8.30;;
30462;SDS011;17256;43.618;25.336;2023-06-26T08:02:52;11.33;;;7.87;;
30462;SDS011;17256;43.618;25.336;2023-06-26T08:05:18;10.00;;;8.87;;
30462;SDS011;17256;43.618;25.336;2023-06-26T08:07:49;8.13;;;7.33;;
30462;SDS011;17256;43.618;25.336;2023-06-26T08:10:14;9.70;;;7.97;;
30462;SDS011;17256;43.618;25.336;2023-06-26T08:12:46;10.47;;;7.77;;
30462;SDS011;17256;43.618;25.336;2023-06-26T08:15:47;9.40;;;7.87;;
30462;SDS011;17256;43.618;25.336;2023-06-26T08:21:01;8.27;;;7.27;;
30462;SDS011;17256;43.618;25.336;2023-06-26T08:23:27;8.17;;;7.30;;
30462;SDS011;17256;43.618;25.336;2023-06-26T08:25:53;7.83;;;7.03;;
30462;SDS011;17256;43.618;25.336;2023-06-26T08:28:18;7.80;;;6.83;;
30462;SDS011;17256;43.618;25.336;2023-06-26T08:30:44;8.97;;;6.83;;
30462;SDS011;17256;43.618;25.336;2023-06-26T08:33:10;7.70;;;5.93;;
30462;SDS011;17256;43.618;25.336;2023-06-26T08:35:37;10.27;;;6.60;;
30462;SDS011;17256;43.618;25.336;2023-06-26T08:38:03;7.63;;;6.83;;
30462;SDS011;17256;43.618;25.336;2023-06-26T08:40:29;7.10;;;6.40;;
30462;SDS011;17256;43.618;25.336;2023-06-26T08:42:55;7.87;;;6.33;;
30462;SDS011;17256;43.618;25.336;2023-06-26T08:45:21;7.13;;;6.43;;
30462;SDS011;17256;43.618;25.336;2023-06-26T08:47:47;8.17;;;7.27;;
30462;SDS011;17256;43.618;25.336;2023-06-26T08:50:16;7.47;;;6.83;;
30462;SDS011;17256;43.618;25.336;2023-06-26T08:55:52;7.13;;;6.63;;
30462;SDS011;17256;43.618;25.336;2023-06-26T08:58:19;6.30;;;5.70;;
30462;SDS011;17256;43.618;25.336;2023-06-26T09:00:45;10.03;;;6.60;;
30462;SDS011;17256;43.618;25.336;2023-06-26T09:03:11;6.93;;;6.33;;
30462;SDS011;17256;43.618;25.336;2023-06-26T09:05:38;7.83;;;6.60;;
30462;SDS011;17256;43.618;25.336;2023-06-26T09:08:03;7.27;;;6.57;;
30462;SDS011;17256;43.618;25.336;2023-06-26T09:10:29;6.33;;;5.80;;
30462;SDS011;17256;43.618;25.336;2023-06-26T09:12:55;7.23;;;5.90;;
30462;SDS011;17256;43.618;25.336;2023-06-26T09:15:26;8.50;;;6.47;;
30462;SDS011;17256;43.618;25.336;2023-06-26T09:17:57;6.53;;;5.80;;
30462;SDS011;17256;43.618;25.336;2023-06-26T09:20:25;6.90;;;6.27;;
30462;SDS011;17256;43.618;25.336;2023-06-26T09:22:54;7.17;;;6.53;;
30462;SDS011;17256;43.618;25.336;2023-06-26T09:25:20;7.10;;;6.53;;
30462;SDS011;17256;43.618;25.336;2023-06-26T09:27:48;7.47;;;6.00;;
30462;SDS011;17256;43.618;25.336;2023-06-26T09:30:16;6.53;;;5.93;;
30462;SDS011;17256;43.618;25.336;2023-06-26T09:32:42;6.83;;;6.17;;
30462;SDS011;17256;43.618;25.336;2023-06-26T09:35:10;7.50;;;5.90;;
30462;SDS011;17256;43.618;25.336;2023-06-26T09:37:35;7.23;;;5.97;;
30462;SDS011;17256;43.618;25.336;2023-06-26T09:43:24;7.93;;;6.80;;
30462;SDS011;17256;43.618;25.336;2023-06-26T09:45:51;7.57;;;5.60;;
30462;SDS011;17256;43.618;25.336;2023-06-26T09:48:16;7.13;;;6.27;;
30462;SDS011;17256;43.618;25.336;2023-06-26T09:50:42;8.97;;;5.83;;
30462;SDS011;17256;43.618;25.336;2023-06-26T09:53:08;10.67;;;6.37;;
30462;SDS011;17256;43.618;25.336;2023-06-26T09:55:35;10.57;;;7.80;;
30462;SDS011;17256;43.618;25.336;2023-06-26T09:58:05;8.80;;;6.93;;
30462;SDS011;17256;43.618;25.336;2023-06-26T10:00:32;13.43;;;5.93;;
30462;SDS011;17256;43.618;25.336;2023-06-26T10:03:01;7.17;;;5.67;;
30462;SDS011;17256;43.618;25.336;2023-06-26T10:05:26;6.50;;;5.87;;
30462;SDS011;17256;43.618;25.336;2023-06-26T10:07:53;6.73;;;6.13;;
30462;SDS011;17256;43.618;25.336;2023-06-26T10:10:19;7.17;;;6.27;;
30462;SDS011;17256;43.618;25.336;2023-06-26T10:12:48;7.70;;;6.17;;
30462;SDS011;17256;43.618;25.336;2023-06-26T10:15:17;7.13;;;6.33;;
30462;SDS011;17256;43.618;25.336;2023-06-26T10:18:27;9.60;;;6.50;;
30462;SDS011;17256;43.618;25.336;2023-06-26T10:20:56;5.97;;;5.40;;
30462;SDS011;17256;43.618;25.336;2023-06-26T10:23:23;6.47;;;5.90;;
30462;SDS011;17256;43.618;25.336;2023-06-26T10:25:51;10.30;;;6.30;;
30462;SDS011;17256;43.618;25.336;2023-06-26T10:28:19;6.60;;;5.73;;
30462;SDS011;17256;43.618;25.336;2023-06-26T10:30:48;7.23;;;6.57;;
30462;SDS011;17256;43.618;25.336;2023-06-26T10:33:17;6.60;;;6.10;;
30462;SDS011;17256;43.618;25.336;2023-06-26T10:35:43;9.13;;;6.60;;
30462;SDS011;17256;43.618;25.336;2023-06-26T10:38:09;8.40;;;6.57;;
30462;SDS011;17256;43.618;25.336;2023-06-26T10:40:54;7.50;;;6.83;;
30462;SDS011;17256;43.618;25.336;2023-06-26T10:51:16;6.80;;;6.27;;
30462;SDS011;17256;43.618;25.336;2023-06-26T10:53:43;7.23;;;6.60;;
30462;SDS011;17256;43.618;25.336;2023-06-26T10:56:18;6.60;;;6.10;;
30462;SDS011;17256;43.618;25.336;2023-06-26T10:58:44;6.97;;;6.33;;
30462;SDS011;17256;43.618;25.336;2023-06-26T11:03:38;6.43;;;5.67;;
30462;SDS011;17256;43.618;25.336;2023-06-26T11:06:08;5.93;;;5.33;;
30462;SDS011;17256;43.618;25.336;2023-06-26T11:08:54;6.97;;;6.33;;
30462;SDS011;17256;43.618;25.336;2023-06-26T11:14:23;9.33;;;6.77;;
30462;SDS011;17256;43.618;25.336;2023-06-26T11:16:50;7.57;;;6.83;;
30462;SDS011;17256;43.618;25.336;2023-06-26T11:19:19;10.43;;;6.03;;
30462;SDS011;17256;43.618;25.336;2023-06-26T11:21:45;7.67;;;6.90;;
30462;SDS011;17256;43.618;25.336;2023-06-26T11:24:13;7.23;;;6.60;;
30462;SDS011;17256;43.618;25.336;2023-06-26T11:26:42;8.67;;;5.07;;
30462;SDS011;17256;43.618;25.336;2023-06-26T11:29:09;6.83;;;5.23;;
30462;SDS011;17256;43.618;25.336;2023-06-26T11:31:46;4.80;;;4.00;;
30462;SDS011;17256;43.618;25.336;2023-06-26T11:34:12;4.13;;;3.57;;
30462;SDS011;17256;43.618;25.336;2023-06-26T11:36:59;6.50;;;4.43;;
30462;SDS011;17256;43.618;25.336;2023-06-26T11:39:35;5.60;;;4.27;;
30462;SDS011;17256;43.618;25.336;2023-06-26T11:42:31;4.63;;;4.23;;
30462;SDS011;17256;43.618;25.336;2023-06-26T11:56:54;4.77;;;3.40;;
30462;SDS011;17256;43.618;25.336;2023-06-26T12:09:43;5.30;;;4.13;;
30462;SDS011;17256;43.618;25.336;2023-06-26T12:12:11;4.30;;;3.90;;
30462;SDS011;17256;43.618;25.336;2023-06-26T12:20:39;4.83;;;3.00;;
30462;SDS011;17256;43.618;25.336;2023-06-26T12:23:39;6.50;;;3.13;;
30462;SDS011;17256;43.618;25.336;2023-06-26T12:26:20;5.33;;;3.13;;
30462;SDS011;17256;43.618;25.336;2023-06-26T12:29:07;3.80;;;2.53;;
30462;SDS011;17256;43.618;25.336;2023-06-26T12:44:30;6.80;;;3.80;;
30462;SDS011;17256;43.618;25.336;2023-06-26T12:47:02;3.27;;;2.73;;
30462;SDS011;17256;43.618;25.336;2023-06-26T12:49:37;4.90;;;3.17;;
30462;SDS011;17256;43.618;25.336;2023-06-26T12:55:35;3.70;;;3.40;;
30462;SDS011;17256;43.618;25.336;2023-06-26T12:58:01;3.47;;;3.17;;
30462;SDS011;17256;43.618;25.336;2023-06-26T13:00:27;5.90;;;3.43;;
30462;SDS011;17256;43.618;25.336;2023-06-26T13:02:52;4.67;;;4.27;;
30462;SDS011;17256;43.618;25.336;2023-06-26T13:05:18;4.73;;;4.13;;
30462;SDS011;17256;43.618;25.336;2023-06-26T13:07:44;5.37;;;2.93;;
30462;SDS011;17256;43.618;25.336;2023-06-26T13:13:16;6.47;;;3.27;;
30462;SDS011;17256;43.618;25.336;2023-06-26T13:27:29;4.83;;;3.27;;
30462;SDS011;17256;43.618;25.336;2023-06-26T13:36:48;3.87;;;3.47;;
30462;SDS011;17256;43.618;25.336;2023-06-26T13:39:14;3.93;;;3.53;;
30462;SDS011;17256;43.618;25.336;2023-06-26T13:41:40;4.33;;;3.90;;
30462;SDS011;17256;43.618;25.336;2023-06-26T13:44:05;5.17;;;4.67;;
30462;SDS011;17256;43.618;25.336;2023-06-26T13:46:31;6.00;;;3.93;;
30462;SDS011;17256;43.618;25.336;2023-06-26T13:48:56;4.50;;;4.10;;
30462;SDS011;17256;43.618;25.336;2023-06-26T13:51:22;5.73;;;4.10;;
30462;SDS011;17256;43.618;25.336;2023-06-26T13:53:48;5.67;;;3.90;;
30462;SDS011;17256;43.618;25.336;2023-06-26T13:56:13;3.57;;;3.27;;
30462;SDS011;17256;43.618;25.336;2023-06-26T13:58:39;4.93;;;3.33;;
30462;SDS011;17256;43.618;25.336;2023-06-26T14:01:04;4.90;;;3.83;;
30462;SDS011;17256;43.618;25.336;2023-06-26T14:03:30;5.83;;;3.43;;
30462;SDS011;17256;43.618;25.336;2023-06-26T14:05:55;5.33;;;4.33;;
30462;SDS011;17256;43.618;25.336;2023-06-26T14:08:21;5.97;;;4.77;;
30462;SDS011;17256;43.618;25.336;2023-06-26T14:10:47;5.00;;;3.30;;
30462;SDS011;17256;43.618;25.336;2023-06-26T14:13:12;4.43;;;3.67;;
30462;SDS011;17256;43.618;25.336;2023-06-26T14:15:41;3.63;;;3.33;;
30462;SDS011;17256;43.618;25.336;2023-06-26T14:18:07;5.43;;;5.03;;
30462;SDS011;17256;43.618;25.336;2023-06-26T14:20:32;4.70;;;4.20;;
30462;SDS011;17256;43.618;25.336;2023-06-26T14:22:58;4.10;;;3.60;;
30462;SDS011;17256;43.618;25.336;2023-06-26T14:25:25;2.80;;;2.60;;
30462;SDS011;17256;43.618;25.336;2023-06-26T14:27:53;3.13;;;2.87;;
30462;SDS011;17256;43.618;25.336;2023-06-26T14:30:25;3.17;;;2.97;;
30462;SDS011;17256;43.618;25.336;2023-06-26T14:32:50;3.97;;;3.27;;
30462;SDS011;17256;43.618;25.336;2023-06-26T14:35:16;3.77;;;2.73;;
30462;SDS011;17256;43.618;25.336;2023-06-26T14:37:42;5.40;;;2.90;;
30462;SDS011;17256;43.618;25.336;2023-06-26T14:40:09;4.37;;;3.97;;
30462;SDS011;17256;43.618;25.336;2023-06-26T14:42:35;4.33;;;3.37;;
30462;SDS011;17256;43.618;25.336;2023-06-26T14:45:00;5.50;;;3.40;;
30462;SDS011;17256;43.618;25.336;2023-06-26T14:47:26;3.97;;;3.53;;
30462;SDS011;17256;43.618;25.336;2023-06-26T14:49:52;3.40;;;3.20;;
30462;SDS011;17256;43.618;25.336;2023-06-26T14:52:17;3.17;;;2.93;;
30462;SDS011;17256;43.618;25.336;2023-06-26T14:54:43;5.10;;;3.27;;
30462;SDS011;17256;43.618;25.336;2023-06-26T14:57:08;3.63;;;3.33;;
30462;SDS011;17256;43.618;25.336;2023-06-26T14:59:34;4.37;;;3.10;;
30462;SDS011;17256;43.618;25.336;2023-06-26T15:02:00;3.83;;;3.10;;
30462;SDS011;17256;43.618;25.336;2023-06-26T15:04:25;3.77;;;3.00;;
30462;SDS011;17256;43.618;25.336;2023-06-26T15:06:52;3.53;;;3.23;;
30462;SDS011;17256;43.618;25.336;2023-06-26T15:09:18;3.43;;;3.23;;
30462;SDS011;17256;43.618;25.336;2023-06-26T15:11:43;4.17;;;3.07;;
30462;SDS011;17256;43.618;25.336;2023-06-26T15:14:09;7.60;;;3.43;;
30462;SDS011;17256;43.618;25.336;2023-06-26T15:16:34;3.43;;;2.73;;
30462;SDS011;17256;43.618;25.336;2023-06-26T15:19:00;3.07;;;2.80;;
30462;SDS011;17256;43.618;25.336;2023-06-26T15:21:26;4.00;;;3.27;;
30462;SDS011;17256;43.618;25.336;2023-06-26T15:23:52;3.13;;;2.73;;
30462;SDS011;17256;43.618;25.336;2023-06-26T15:26:17;5.00;;;3.77;;
30462;SDS011;17256;43.618;25.336;2023-06-26T15:28:43;3.97;;;3.57;;
30462;SDS011;17256;43.618;25.336;2023-06-26T15:31:08;4.40;;;3.90;;
30462;SDS011;17256;43.618;25.336;2023-06-26T15:33:34;5.13;;;3.33;;
30462;SDS011;17256;43.618;25.336;2023-06-26T15:35:59;3.17;;;2.87;;
30462;SDS011;17256;43.618;25.336;2023-06-26T15:38:28;3.87;;;3.57;;
30462;SDS011;17256;43.618;25.336;2023-06-26T15:40:54;4.67;;;3.33;;
30462;SDS011;17256;43.618;25.336;2023-06-26T15:43:19;5.87;;;4.00;;
30462;SDS011;17256;43.618;25.336;2023-06-26T15:45:45;3.43;;;3.13;;
30462;SDS011;17256;43.618;25.336;2023-06-26T15:48:11;3.27;;;3.00;;
30462;SDS011;17256;43.618;25.336;2023-06-26T15:50:36;6.07;;;3.97;;
30462;SDS011;17256;43.618;25.336;2023-06-26T16:00:42;5.17;;;4.40;;
30462;SDS011;17256;43.618;25.336;2023-06-26T16:15:13;5.07;;;4.53;;
30462;SDS011;17256;43.618;25.336;2023-06-26T16:23:11;7.03;;;4.53;;
30462;SDS011;17256;43.618;25.336;2023-06-26T16:31:22;5.07;;;4.00;;
30462;SDS011;17256;43.618;25.336;2023-06-26T16:39:27;6.97;;;4.33;;
30462;SDS011;17256;43.618;25.336;2023-06-26T16:43:12;5.30;;;4.10;;
30462;SDS011;17256;43.618;25.336;2023-06-26T16:51:36;3.63;;;3.13;;
30462;SDS011;17256;43.618;25.336;2023-06-26T17:13:46;3.27;;;2.50;;
30462;SDS011;17256;43.618;25.336;2023-06-26T17:17:32;2.97;;;2.10;;
30462;SDS011;17256;43.618;25.336;2023-06-26T17:20:06;4.93;;;2.33;;
30462;SDS011;17256;43.618;25.336;2023-06-26T17:22:38;3.03;;;2.53;;
30462;SDS011;17256;43.618;25.336;2023-06-26T17:25:05;3.83;;;2.80;;
30462;SDS011;17256;43.618;25.336;2023-06-26T17:27:33;4.47;;;3.07;;
30462;SDS011;17256;43.618;25.336;2023-06-26T17:30:01;5.47;;;3.30;;
30462;SDS011;17256;43.618;25.336;2023-06-26T17:32:28;3.67;;;3.37;;
30462;SDS011;17256;43.618;25.336;2023-06-26T17:34:54;3.67;;;2.97;;
30462;SDS011;17256;43.618;25.336;2023-06-26T17:41:11;7.67;;;3.43;;
30462;SDS011;17256;43.618;25.336;2023-06-26T17:58:44;3.87;;;3.00;;
30462;SDS011;17256;43.618;25.336;2023-06-26T18:03:43;5.13;;;3.40;;
30462;SDS011;17256;43.618;25.336;2023-06-26T18:06:09;3.47;;;3.17;;
30462;SDS011;17256;43.618;25.336;2023-06-26T18:08:36;4.37;;;3.63;;
30462;SDS011;17256;43.618;25.336;2023-06-26T18:11:14;4.23;;;3.80;;
30462;SDS011;17256;43.618;25.336;2023-06-26T18:14:06;4.33;;;2.87;;
30462;SDS011;17256;43.618;25.336;2023-06-26T18:20:15;4.07;;;3.33;;
30462;SDS011;17256;43.618;25.336;2023-06-26T18:22:41;3.30;;;3.00;;
30462;SDS011;17256;43.618;25.336;2023-06-26T18:25:12;4.33;;;3.13;;
30462;SDS011;17256;43.618;25.336;2023-06-26T18:30:27;4.33;;;3.73;;
30462;SDS011;17256;43.618;25.336;2023-06-26T18:32:57;5.20;;;4.40;;
30462;SDS011;17256;43.618;25.336;2023-06-26T18:35:31;5.27;;;4.73;;
30462;SDS011;17256;43.618;25.336;2023-06-26T18:38:03;4.00;;;3.70;;
30462;SDS011;17256;43.618;25.336;2023-06-26T18:43:20;3.13;;;2.93;;
30462;SDS011;17256;43.618;25.336;2023-06-26T18:46:03;3.37;;;3.07;;
30462;SDS011;17256;43.618;25.336;2023-06-26T18:48:38;4.30;;;3.10;;
30462;SDS011;17256;43.618;25.336;2023-06-26T18:51:31;5.33;;;3.57;;
30462;SDS011;17256;43.618;25.336;2023-06-26T18:54:06;3.27;;;2.97;;
30462;SDS011;17256;43.618;25.336;2023-06-26T18:56:35;3.97;;;2.90;;
30462;SDS011;17256;43.618;25.336;2023-06-26T19:01:42;4.30;;;3.20;;
30462;SDS011;17256;43.618;25.336;2023-06-26T19:04:10;3.77;;;2.80;;
30462;SDS011;17256;43.618;25.336;2023-06-26T19:06:42;4.20;;;3.10;;
30462;SDS011;17256;43.618;25.336;2023-06-26T19:09:10;4.67;;;3.50;;
30462;SDS011;17256;43.618;25.336;2023-06-26T19:11:39;3.00;;;2.67;;
30462;SDS011;17256;43.618;25.336;2023-06-26T19:14:06;4.20;;;2.93;;
30462;SDS011;17256;43.618;25.336;2023-06-26T19:16:42;4.47;;;2.97;;
30462;SDS011;17256;43.618;25.336;2023-06-26T19:19:10;3.00;;;2.80;;
30462;SDS011;17256;43.618;25.336;2023-06-26T19:21:43;2.13;;;1.97;;
30462;SDS011;17256;43.618;25.336;2023-06-26T19:24:13;2.53;;;2.30;;
30462;SDS011;17256;43.618;25.336;2023-06-26T19:26:41;5.17;;;3.07;;
30462;SDS011;17256;43.618;25.336;2023-06-26T19:29:14;3.40;;;2.37;;
30462;SDS011;17256;43.618;25.336;2023-06-26T19:31:44;2.00;;;1.80;;
30462;SDS011;17256;43.618;25.336;2023-06-26T19:34:11;2.40;;;2.00;;
30462;SDS011;17256;43.618;25.336;2023-06-26T19:36:40;3.73;;;2.97;;
30462;SDS011;17256;43.618;25.336;2023-06-26T19:39:13;2.30;;;2.10;;
30462;SDS011;17256;43.618;25.336;2023-06-26T19:41:43;2.37;;;2.17;;
30462;SDS011;17256;43.618;25.336;2023-06-26T19:44:11;3.50;;;2.17;;
30462;SDS011;17256;43.618;25.336;2023-06-26T19:46:41;2.70;;;2.20;;
30462;SDS011;17256;43.618;25.336;2023-06-26T19:49:10;3.50;;;2.53;;
30462;SDS011;17256;43.618;25.336;2023-06-26T19:51:37;2.63;;;2.23;;
30462;SDS011;17256;43.618;25.336;2023-06-26T19:54:04;5.43;;;2.93;;
30462;SDS011;17256;43.618;25.336;2023-06-26T19:56:31;8.37;;;2.17;;
30462;SDS011;17256;43.618;25.336;2023-06-26T19:59:00;3.83;;;2.37;;